Terminal Aerodrome Forecast
Issued by NWS Louisville, KY

Home | Current Version | Previous Version | Text Only | Print | Product List | Glossary On
Versions: 1 2 3 4 5 6 7 8 9 10 11 12 13 14 15 16 17
126
FTUS43 KLMK 281906 AAB
TAFLEX
TAF AMD
KLEX 281906Z 2819/2918 VRB04KT P6SM VCTS SCT040CB SCT150
      TEMPO 2819/2821 VRB15G25KT 1SM -TSRA BKN025CB
     FM290200 04004KT P6SM FEW040 SCT150
     FM290900 VRB03KT 5SM BR SCT100
     FM291300 05004KT P6SM SCT040 SCT150=

USA.gov is the U.S. government's official web portal to all federal, state and local government web resources and services.